Time;durP1;ratioP1;P1;durP2;ratioP2;P2;SDS_P1;SDS_P2;PMS_P1;PMS_P2;Temp;Humidity;BMP_temperature;BMP_pressure;BME280_temperature;BME280_humidity;BME280_pressure;Samples;Min_cycle;Max_cycle;Signal;HPM_P1;HPM_P2
2020/12/11 00:00:45;;;;;;;24.32;14.13;;;;;;;2.10;76.97;101023.44;1709553;82;21134;-41
2020/12/11 00:03:14;;;;;;;23.05;12.47;;;;;;;2.09;76.98;101022.57;1758460;80;21170;-39
2020/12/11 00:05:41;;;;;;;20.82;12.03;;;;;;;2.09;77.00;101025.62;1766749;80;21150;-44
2020/12/11 00:08:09;;;;;;;20.50;13.62;;;;;;;2.10;77.04;101016.41;1759894;80;21134;-42
2020/12/11 00:10:37;;;;;;;21.85;13.90;;;;;;;2.12;77.05;101021.66;1773079;80;21559;-44
2020/12/11 00:13:04;;;;;;;20.95;13.15;;;;;;;2.11;77.01;101016.81;1761311;80;21135;-40
2020/12/11 00:15:32;;;;;;;19.48;12.40;;;;;;;2.10;77.01;101017.72;1755768;80;21134;-40
2020/12/11 00:17:59;;;;;;;19.80;10.95;;;;;;;2.13;77.03;101026.02;1749327;80;21164;-42
2020/12/11 00:20:27;;;;;;;18.20;12.00;;;;;;;2.13;77.02;101027.33;1749887;80;21134;-41
2020/12/11 00:22:54;;;;;;;21.00;11.80;;;;;;;2.13;77.05;101023.37;1755965;80;21125;-41
2020/12/11 00:25:22;;;;;;;20.60;13.18;;;;;;;2.11;77.04;101027.34;1755311;81;21152;-41
2020/12/11 00:27:50;;;;;;;22.10;12.15;;;;;;;2.10;77.08;101029.56;1744383;80;21134;-38
2020/12/11 00:30:18;;;;;;;23.85;13.13;;;;;;;2.10;77.10;101028.70;1755350;80;21126;-42
2020/12/11 00:32:45;;;;;;;20.32;12.45;;;;;;;2.09;77.11;101026.52;1753398;80;21146;-44
2020/12/11 00:35:13;;;;;;;18.52;11.05;;;;;;;2.10;77.11;101027.37;1759141;80;21142;-45
2020/12/11 00:37:42;;;;;;;16.32;11.00;;;;;;;2.11;77.13;101025.16;1754842;80;21474;-40
2020/12/11 00:40:10;;;;;;;19.67;12.10;;;;;;;2.12;77.12;101016.39;1758470;80;21158;-43
2020/12/11 00:42:38;;;;;;;20.68;11.03;;;;;;;2.12;77.10;101017.26;1752741;80;21179;-43
2020/12/11 00:45:05;;;;;;;15.65;11.20;;;;;;;2.13;77.09;101016.80;1753759;80;21430;-41
2020/12/11 00:47:33;;;;;;;18.05;10.95;;;;;;;2.14;77.09;101013.27;1750611;80;21150;-40
2020/12/11 00:50:01;;;;;;;15.80;10.80;;;;;;;2.14;77.06;101014.58;1750487;80;21954;-40
2020/12/11 00:52:29;;;;;;;18.70;11.60;;;;;;;2.14;77.07;101013.27;1753130;80;21680;-41
2020/12/11 00:54:56;;;;;;;20.57;13.05;;;;;;;2.14;77.05;101010.22;1754233;80;21218;-40
2020/12/11 00:57:24;;;;;;;18.32;11.70;;;;;;;2.15;77.05;101011.94;1706515;82;21126;-39
2020/12/11 00:59:51;;;;;;;19.60;13.20;;;;;;;2.15;77.04;101002.73;1755401;80;21138;-41
2020/12/11 01:02:19;;;;;;;14.05;11.03;;;;;;;2.16;77.07;101002.28;1751140;81;21162;-41
2020/12/11 01:04:47;;;;;;;13.98;10.30;;;;;;;2.19;77.05;101009.25;1752867;80;21645;-39
2020/12/11 01:07:14;;;;;;;15.88;11.08;;;;;;;2.19;77.04;101010.11;1756663;80;21115;-43
2020/12/11 01:09:44;;;;;;;22.73;12.55;;;;;;;2.17;77.02;101009.30;1754639;80;21134;-42
2020/12/11 01:12:11;;;;;;;18.30;12.03;;;;;;;2.18;77.03;101010.16;1706743;82;21110;-40
2020/12/11 01:14:38;;;;;;;15.88;11.30;;;;;;;2.17;77.03;101011.92;1756843;80;21703;-38
2020/12/11 01:17:06;;;;;;;23.30;12.78;;;;;;;2.22;77.12;101010.52;1751717;80;21130;-42
2020/12/11 01:19:33;;;;;;;17.02;10.50;;;;;;;2.29;77.03;101009.11;1756417;80;21304;-41
2020/12/11 01:22:04;;;;;;;15.85;11.10;;;;;;;2.34;76.90;101008.59;1754037;80;21610;-45
2020/12/11 01:24:31;;;;;;;12.28;8.65;;;;;;;2.38;76.83;101005.44;1749079;80;21641;-43
2020/12/11 01:26:59;;;;;;;16.37;11.40;;;;;;;2.41;76.75;101000.57;1702618;82;21118;-42
2020/12/11 01:29:26;;;;;;;13.83;10.18;;;;;;;2.43;76.64;100998.79;1761204;80;21154;-43
2020/12/11 01:31:59;;;;;;;17.85;10.43;;;;;;;2.43;76.52;100993.07;1751471;80;21131;-43
2020/12/11 01:34:27;;;;;;;18.67;10.70;;;;;;;2.42;76.48;100989.13;1754479;81;21130;-43
2020/12/11 01:36:55;;;;;;;15.45;10.63;;;;;;;2.43;76.41;100990.89;1757671;81;21134;-41
2020/12/11 01:39:22;;;;;;;16.15;10.78;;;;;;;2.40;76.40;100986.55;1752482;81;21504;-45
2020/12/11 01:41:51;;;;;;;16.50;10.35;;;;;;;2.38;76.38;100998.41;1751147;81;21169;-42
2020/12/11 01:44:19;;;;;;;14.47;10.45;;;;;;;2.37;76.38;100992.73;1750614;81;21146;-43
2020/12/11 01:46:46;;;;;;;14.60;10.30;;;;;;;2.39;76.35;100988.73;1752181;80;21129;-42
2020/12/11 01:49:14;;;;;;;17.40;10.13;;;;;;;2.40;76.28;100987.86;1712166;80;21146;-42
2020/12/11 01:51:43;;;;;;;14.87;8.98;;;;;;;2.41;76.26;100984.33;1763493;80;21138;-41
2020/12/11 01:54:10;;;;;;;19.20;11.73;;;;;;;2.41;76.22;100980.38;1751949;80;21664;-41
2020/12/11 01:56:53;;;;;;;19.00;11.03;;;;;;;2.40;76.18;100978.65;1756938;80;21638;-42
2020/12/11 01:59:26;;;;;;;13.58;9.38;;;;;;;2.38;76.16;100967.27;1751046;81;21148;-43
2020/12/11 02:01:54;;;;;;;15.18;10.93;;;;;;;2.40;76.15;100973.39;1755186;80;21150;-44
2020/12/11 02:04:22;;;;;;;15.32;9.38;;;;;;;2.41;76.11;100978.20;1728813;81;21162;-42
2020/12/11 02:06:50;;;;;;;15.13;10.25;;;;;;;2.40;76.13;100973.84;1757082;81;22042;-40
2020/12/11 02:09:22;;;;;;;18.52;10.00;;;;;;;2.40;76.12;100969.89;1758231;81;21138;-50
2020/12/11 02:11:51;;;;;;;16.07;11.38;;;;;;;2.41;76.10;100971.61;1757711;80;21122;-41
2020/12/11 02:14:19;;;;;;;15.25;9.98;;;;;;;2.39;76.11;100971.63;1754560;81;21547;-43
2020/12/11 02:16:46;;;;;;;14.70;9.30;;;;;;;2.40;76.12;100972.52;1749903;81;21146;-43
2020/12/11 02:19:14;;;;;;;19.90;9.28;;;;;;;2.41;76.07;100976.88;1760500;80;21134;-44
2020/12/11 02:21:42;;;;;;;13.40;9.58;;;;;;;2.43;76.07;100977.73;1755277;81;21154;-46
2020/12/11 02:24:09;;;;;;;15.78;9.95;;;;;;;2.43;76.37;100972.01;1753792;80;21539;-45
2020/12/11 02:26:37;;;;;;;17.48;11.35;;;;;;;2.48;76.18;100966.22;1761680;81;21134;-42
2020/12/11 02:29:04;;;;;;;17.45;10.48;;;;;;;2.48;76.04;100968.84;1760774;80;21138;-45
2020/12/11 02:31:32;;;;;;;14.65;9.88;;;;;;;2.47;75.95;100962.28;1755168;80;21622;-43
2020/12/11 02:33:59;;;;;;;14.40;9.75;;;;;;;2.47;75.91;100971.07;1754877;80;21147;-44
2020/12/11 02:36:27;;;;;;;16.35;8.83;;;;;;;2.47;75.82;100976.34;1756354;81;21526;-44
2020/12/11 02:38:54;;;;;;;13.22;8.95;;;;;;;2.46;75.82;100972.41;1753334;81;21157;-44
2020/12/11 02:41:22;;;;;;;31.05;9.35;;;;;;;2.46;75.82;100975.90;1731671;81;21118;-43
2020/12/11 02:43:49;;;;;;;12.58;9.18;;;;;;;2.44;75.78;100973.73;1712005;82;21451;-43
2020/12/11 02:46:17;;;;;;;13.72;8.83;;;;;;;2.42;75.73;100977.29;1753103;80;21197;-43
2020/12/11 02:48:44;;;;;;;17.23;9.45;;;;;;;2.42;75.72;100985.19;1764872;80;21135;-45
2020/12/11 02:51:12;;;;;;;13.90;9.35;;;;;;;2.40;75.74;100989.18;1753214;81;21158;-44
2020/12/11 02:53:39;;;;;;;14.78;9.18;;;;;;;2.40;75.73;100988.31;1761502;80;21186;-44
2020/12/11 02:56:07;;;;;;;15.13;9.53;;;;;;;2.38;75.70;100990.51;1761991;80;21158;-42
2020/12/11 02:58:34;;;;;;;15.25;9.45;;;;;;;2.39;75.68;100988.73;1765365;80;21094;-45
2020/12/11 03:01:02;;;;;;;16.07;10.20;;;;;;;2.39;75.63;100984.79;1759741;80;21580;-43
2020/12/11 03:03:29;;;;;;;15.20;9.23;;;;;;;2.39;75.62;100987.42;1759591;80;21105;-46
2020/12/11 03:05:56;;;;;;;16.40;9.63;;;;;;;2.38;75.67;100987.02;1760964;80;21170;-44
2020/12/11 03:08:24;;;;;;;13.58;8.75;;;;;;;2.37;75.65;100985.29;1764976;80;21142;-44
2020/12/11 03:10:52;;;;;;;13.48;9.45;;;;;;;2.37;75.62;100991.41;1762263;81;21135;-44
2020/12/11 03:13:19;;;;;;;15.55;8.88;;;;;;;2.38;75.65;100985.70;1686709;84;21171;-42
2020/12/11 03:15:47;;;;;;;13.85;8.53;;;;;;;2.37;75.62;100983.52;1755283;80;21141;-44
2020/12/11 03:18:14;;;;;;;12.88;9.68;;;;;;;2.40;75.59;100987.86;1755180;80;21669;-39
2020/12/11 03:20:42;;;;;;;13.22;8.80;;;;;;;2.41;75.59;100986.95;1755270;81;21154;-43
2020/12/11 03:23:09;;;;;;;11.85;8.65;;;;;;;2.41;75.54;100984.77;1750451;80;21114;-42
2020/12/11 03:25:37;;;;;;;18.10;9.63;;;;;;;2.38;75.51;100982.61;1754899;81;21454;-41
2020/12/11 03:28:05;;;;;;;16.30;9.50;;;;;;;2.38;75.55;100981.75;1750971;80;21146;-41
2020/12/11 03:30:32;;;;;;;14.25;9.00;;;;;;;2.39;75.55;100980.84;1751946;80;21561;-42
2020/12/11 03:33:00;;;;;;;14.10;9.23;;;;;;;2.38;75.55;100977.80;1754023;80;21149;-43
2020/12/11 03:35:27;;;;;;;14.60;9.33;;;;;;;2.36;75.54;100975.18;1753141;80;21118;-42
2020/12/11 03:37:55;;;;;;;18.55;8.83;;;;;;;2.35;75.58;100978.72;1762272;80;21150;-43
2020/12/11 03:40:23;;;;;;;12.05;8.60;;;;;;;2.35;75.57;100977.86;1759476;80;21169;-45
2020/12/11 03:42:50;;;;;;;14.03;9.68;;;;;;;2.34;75.61;100985.31;1754929;80;21106;-48
2020/12/11 03:45:17;;;;;;;14.30;8.85;;;;;;;2.35;75.56;100988.39;1711487;82;21714;-44
2020/12/11 03:47:45;;;;;;;13.75;9.00;;;;;;;2.36;75.54;100989.66;1747920;80;21174;-45
2020/12/11 03:50:12;;;;;;;12.50;9.08;;;;;;;2.35;75.44;100993.20;1758593;80;21131;-45
2020/12/11 03:52:40;;;;;;;15.58;8.33;;;;;;;2.34;75.41;100986.63;1755120;81;21146;-45
2020/12/11 03:55:07;;;;;;;14.65;8.93;;;;;;;2.34;75.34;100991.89;1755039;81;21155;-42
2020/12/11 03:57:35;;;;;;;11.97;7.97;;;;;;;2.33;75.33;100987.09;1759126;80;21127;-44
2020/12/11 04:00:04;;;;;;;12.18;7.53;;;;;;;2.32;75.30;100991.94;1753299;80;21129;-43
2020/12/11 04:02:34;;;;;;;15.93;8.98;;;;;;;2.32;75.30;100993.26;1705191;82;21150;-43
2020/12/11 04:05:05;;;;;;;13.22;9.18;;;;;;;2.32;75.28;100993.71;1753513;80;21138;-43
2020/12/11 04:07:32;;;;;;;13.45;9.28;;;;;;;2.30;75.24;100992.86;1754252;81;21654;-43
2020/12/11 04:10:00;;;;;;;15.03;9.05;;;;;;;2.27;75.23;100994.20;1754816;80;21142;-40
2020/12/11 04:12:27;;;;;;;13.68;9.28;;;;;;;2.26;75.19;100989.39;1746904;81;21110;-41
2020/12/11 04:14:55;;;;;;;13.43;8.98;;;;;;;2.27;75.11;100992.88;1752917;81;21134;-44
2020/12/11 04:17:22;;;;;;;12.15;8.35;;;;;;;2.26;75.14;100988.53;1676070;84;21146;-41
2020/12/11 04:19:50;;;;;;;13.32;8.38;;;;;;;2.24;75.12;100992.48;1670297;84;21916;-41
2020/12/11 04:22:17;;;;;;;14.15;8.30;;;;;;;2.24;75.12;100997.75;1752247;80;21144;-41
2020/12/11 04:24:45;;;;;;;14.53;8.98;;;;;;;2.24;75.08;100997.75;1749099;80;21174;-40
2020/12/11 04:27:12;;;;;;;14.23;7.72;;;;;;;2.25;75.03;100994.70;1753739;81;21138;-42
2020/12/11 04:29:41;;;;;;;13.93;7.20;;;;;;;2.24;75.00;100997.75;1754964;81;21645;-40
2020/12/11 04:32:09;;;;;;;13.43;7.60;;;;;;;2.24;75.01;100988.54;1756509;80;21582;-39
2020/12/11 04:34:36;;;;;;;12.18;8.05;;;;;;;2.27;74.95;100992.88;1710262;82;21143;-42
2020/12/11 04:37:04;;;;;;;11.15;7.33;;;;;;;2.23;74.88;100996.03;1752968;80;21142;-40
2020/12/11 04:39:31;;;;;;;11.18;7.67;;;;;;;2.21;74.79;100994.31;1754734;80;21608;-41
2020/12/11 04:41:59;;;;;;;13.32;7.55;;;;;;;2.21;74.69;101003.07;1705577;83;21146;-39
2020/12/11 04:44:26;;;;;;;11.03;7.30;;;;;;;2.20;74.59;101000.03;1748681;80;21150;-43
2020/12/11 04:46:54;;;;;;;12.07;7.90;;;;;;;2.20;74.69;101004.44;1753787;80;21155;-44
2020/12/11 04:49:21;;;;;;;11.20;7.58;;;;;;;2.20;74.62;101001.80;1753748;80;21137;-43
2020/12/11 04:51:51;;;;;;;14.07;7.17;;;;;;;2.18;74.57;101003.13;1749312;81;21167;-43
2020/12/11 04:54:22;;;;;;;13.60;7.83;;;;;;;2.16;74.43;101008.86;1757127;80;21161;-48
2020/12/11 04:56:51;;;;;;;12.20;7.75;;;;;;;2.13;74.29;101013.72;1755789;81;21130;-44
2020/12/11 04:59:19;;;;;;;10.82;7.80;;;;;;;2.12;74.21;101002.78;1757601;80;21181;-45
2020/12/11 05:01:47;;;;;;;10.63;7.62;;;;;;;2.12;74.06;101017.26;1752897;80;21360;-43
2020/12/11 05:04:15;;;;;;;13.38;6.87;;;;;;;2.10;73.80;101016.86;1709315;82;21783;-49
2020/12/11 05:06:43;;;;;;;13.40;7.80;;;;;;;2.06;73.66;101016.02;1750677;81;21570;-42
2020/12/11 05:09:20;;;;;;;13.85;7.83;;;;;;;2.06;73.68;101018.64;1753233;80;21150;-43
2020/12/11 05:11:48;;;;;;;10.93;7.83;;;;;;;2.02;73.59;101020.05;1752981;81;21135;-42
2020/12/11 05:14:25;;;;;;;13.80;7.97;;;;;;;2.02;73.56;101021.38;1747400;81;21177;-44
2020/12/11 05:17:02;;;;;;;16.85;9.15;;;;;;;2.00;73.44;101022.70;1707406;82;21166;-44
2020/12/11 05:19:33;;;;;;;11.03;8.18;;;;;;;1.97;73.31;101023.20;1705937;82;21586;-42
2020/12/11 05:22:10;;;;;;;10.67;7.03;;;;;;;1.94;73.28;101026.30;1753735;80;21134;-45
2020/12/11 05:24:46;;;;;;;11.73;7.22;;;;;;;1.94;73.42;101030.23;1751791;80;21150;-42
2020/12/11 05:27:44;;;;;;;13.38;7.65;;;;;;;1.96;73.44;101028.88;1756501;80;21125;-44
2020/12/11 05:30:17;;;;;;;15.45;8.60;;;;;;;1.97;73.52;101031.09;1706732;82;21575;-45
2020/12/11 05:32:50;;;;;;;14.33;8.20;;;;;;;1.95;73.34;101035.91;1748755;80;21114;-45
2020/12/11 05:35:25;;;;;;;13.95;8.73;;;;;;;1.95;73.38;101032.42;1749285;80;21109;-44
2020/12/11 05:38:04;;;;;;;12.15;8.30;;;;;;;1.96;73.28;101034.14;1755725;81;21170;-43
2020/12/11 05:40:38;;;;;;;11.85;7.95;;;;;;;1.95;73.17;101035.05;1754508;80;22125;-44
2020/12/11 05:43:16;;;;;;;13.98;8.65;;;;;;;1.94;73.03;101035.92;1752775;81;21173;-44
2020/12/11 05:45:58;;;;;;;12.33;8.73;;;;;;;1.90;72.72;101041.69;1749945;80;22162;-44
2020/12/11 05:48:37;;;;;;;16.07;9.18;;;;;;;1.86;72.60;101037.34;1751852;80;21149;-43
2020/12/11 05:51:15;;;;;;;15.83;8.88;;;;;;;1.84;72.31;101033.89;1749123;81;21178;-40
2020/12/11 05:53:43;;;;;;;16.55;8.45;;;;;;;1.81;72.10;101039.17;1749178;81;21297;-40
2020/12/11 05:56:11;;;;;;;12.98;8.20;;;;;;;1.77;72.02;101045.38;1751084;81;21138;-43
2020/12/11 05:58:39;;;;;;;14.23;8.88;;;;;;;1.78;72.09;101043.61;1684601;84;21720;-46
2020/12/11 06:01:07;;;;;;;12.85;9.10;;;;;;;1.77;72.01;101051.95;1691863;83;21666;-41
2020/12/11 06:03:35;;;;;;;12.37;7.45;;;;;;;1.74;71.90;101054.63;1683524;82;21150;-41
2020/12/11 06:06:02;;;;;;;12.75;7.78;;;;;;;1.74;71.90;101057.27;1752305;81;21158;-42
2020/12/11 06:08:29;;;;;;;14.00;8.30;;;;;;;1.71;71.69;101048.08;1708528;81;21142;-43
2020/12/11 06:10:57;;;;;;;14.85;9.08;;;;;;;1.69;71.67;101052.06;1752217;81;21158;-41
2020/12/11 06:13:36;;;;;;;13.15;7.55;;;;;;;1.64;71.44;101050.38;1748851;81;21134;-42
2020/12/11 06:16:04;;;;;;;14.00;8.25;;;;;;;1.59;71.47;101046.49;1751690;81;21131;-43
2020/12/11 06:18:33;;;;;;;15.10;9.53;;;;;;;1.60;71.63;101048.22;1749586;81;21134;-42
2020/12/11 06:21:00;;;;;;;14.95;8.98;;;;;;;1.64;71.55;101047.30;1749410;80;21134;-43
2020/12/11 06:23:29;;;;;;;13.65;8.88;;;;;;;1.65;71.39;101054.74;1751059;81;21748;-43
2020/12/11 06:26:01;;;;;;;13.03;8.60;;;;;;;1.63;71.45;101058.69;1703814;82;21151;-42
2020/12/11 06:28:44;;;;;;;13.08;8.25;;;;;;;1.62;71.15;101057.41;1748227;81;21622;-43
2020/12/11 06:31:17;;;;;;;14.18;8.53;;;;;;;1.59;71.04;101050.44;1745793;80;21178;-43
2020/12/11 06:33:50;;;;;;;12.30;8.35;;;;;;;1.55;70.96;101052.66;1745448;80;21614;-43
2020/12/11 06:36:18;;;;;;;16.12;9.15;;;;;;;1.50;70.83;101048.77;1745498;80;21131;-44
2020/12/11 06:38:52;;;;;;;16.48;8.05;;;;;;;1.44;70.58;101054.57;1747912;81;21125;-42
2020/12/11 06:41:34;;;;;;;12.63;8.80;;;;;;;1.39;70.64;101058.56;1701667;82;21158;-42
2020/12/11 06:44:15;;;;;;;13.90;8.10;;;;;;;1.37;71.19;101063.41;1742150;80;21134;-45
2020/12/11 06:46:44;;;;;;;12.43;8.08;;;;;;;1.41;71.50;101055.89;1750303;81;21570;-42
2020/12/11 06:49:19;;;;;;;13.40;8.58;;;;;;;1.40;71.41;101056.34;1730642;81;21179;-45
2020/12/11 06:51:52;;;;;;;13.15;8.45;;;;;;;1.39;70.83;101055.93;1748940;81;21176;-43
2020/12/11 06:54:26;;;;;;;14.07;9.10;;;;;;;1.35;70.63;101047.64;1752782;80;21111;-42
2020/12/11 06:57:00;;;;;;;13.45;9.00;;;;;;;1.27;70.58;101050.81;1683424;83;21134;-42
2020/12/11 06:59:37;;;;;;;14.13;8.43;;;;;;;1.25;70.32;101053.89;1756224;80;21127;-45
2020/12/11 07:02:15;;;;;;;15.65;8.38;;;;;;;1.22;70.32;101047.36;1752625;80;21142;-43
2020/12/11 07:04:44;;;;;;;13.62;8.58;;;;;;;1.22;70.35;101048.23;1763439;80;21138;-45
2020/12/11 07:07:12;;;;;;;12.47;8.10;;;;;;;1.21;70.27;101047.81;1759597;80;21150;-44
2020/12/11 07:09:44;;;;;;;12.33;8.53;;;;;;;1.21;70.01;101045.19;1749813;80;21169;-45
2020/12/11 07:12:14;;;;;;;12.65;7.42;;;;;;;1.17;69.78;101040.84;1750859;80;21142;-44
2020/12/11 07:14:44;;;;;;;14.90;9.08;;;;;;;1.17;69.84;101043.47;1756681;80;21111;-42
2020/12/11 07:17:25;;;;;;;16.95;8.18;;;;;;;1.16;69.74;101047.00;1683079;84;21138;-45
2020/12/11 07:19:54;;;;;;;17.07;8.53;;;;;;;1.13;69.72;101044.38;1743694;80;21469;-42
2020/12/11 07:22:22;;;;;;;13.53;8.00;;;;;;;1.10;69.78;101042.23;1756490;80;21137;-44
2020/12/11 07:24:49;;;;;;;15.60;9.33;;;;;;;1.08;69.86;101037.88;1700397;82;21166;-43
2020/12/11 07:27:17;;;;;;;14.35;8.23;;;;;;;1.09;69.81;101037.44;1753477;80;21141;-43
2020/12/11 07:29:52;;;;;;;14.07;8.38;;;;;;;1.06;69.54;101038.78;1751530;81;21621;-42
2020/12/11 07:32:20;;;;;;;13.40;9.15;;;;;;;1.03;69.71;101033.13;1752600;80;21873;-46
2020/12/11 07:34:48;;;;;;;14.10;8.48;;;;;;;1.02;69.66;101036.62;1747435;80;21166;-43
2020/12/11 07:37:15;;;;;;;14.20;9.58;;;;;;;1.01;69.56;101036.20;1755403;80;21139;-42
2020/12/11 07:39:43;;;;;;;14.68;8.45;;;;;;;1.01;69.63;101037.97;1752238;80;21127;-43
2020/12/11 07:42:11;;;;;;;16.55;9.63;;;;;;;1.00;69.42;101032.27;1743126;81;21172;-42
2020/12/11 07:44:39;;;;;;;15.03;7.65;;;;;;;0.99;69.47;101027.46;1755578;81;21228;-42
2020/12/11 07:47:12;;;;;;;11.57;8.53;;;;;;;1.00;69.57;101032.27;1747142;80;21161;-42
2020/12/11 07:49:46;;;;;;;15.30;8.80;;;;;;;1.02;69.67;101030.50;1754285;81;21142;-42
2020/12/11 07:52:22;;;;;;;15.72;8.98;;;;;;;1.03;69.70;101032.23;1751681;80;21137;-43
2020/12/11 07:54:47;;;;;;;17.87;10.72;;;;;;;1.04;69.62;101029.59;1756171;81;21664;-43
2020/12/11 07:57:20;;;;;;;15.03;9.38;;;;;;;1.03;69.39;101030.50;1762362;80;21141;-43
2020/12/11 08:00:06;;;;;;;12.93;8.55;;;;;;;1.02;69.33;101031.36;1761190;80;21126;-42
2020/12/11 08:02:34;;;;;;;12.13;8.93;;;;;;;1.03;69.23;101030.91;1712898;82;21170;-41
2020/12/11 08:05:08;;;;;;;12.18;9.33;;;;;;;1.01;69.35;101033.58;1760803;80;21177;-43
2020/12/11 08:07:36;;;;;;;15.08;9.30;;;;;;;1.02;69.45;101035.30;1754899;80;21098;-46
2020/12/11 08:10:10;;;;;;;17.25;9.48;;;;;;;1.05;69.47;101033.09;1751931;80;21145;-41
2020/12/11 08:12:39;;;;;;;15.30;9.38;;;;;;;1.05;69.42;101030.01;1750792;80;21855;-42
2020/12/11 08:15:07;;;;;;;13.98;9.35;;;;;;;1.05;69.32;101031.77;1755227;80;21146;-42
2020/12/11 08:17:35;;;;;;;15.15;9.08;;;;;;;1.06;69.34;101035.70;1757223;80;21568;-43
2020/12/11 08:20:07;;;;;;;14.23;9.88;;;;;;;1.05;69.03;101027.38;1682469;83;21562;-43
2020/12/11 08:22:37;;;;;;;16.85;9.65;;;;;;;1.05;69.04;101032.64;1759864;80;21150;-42
2020/12/11 08:25:21;;;;;;;15.08;9.63;;;;;;;1.02;69.08;101032.67;1754219;81;21366;-43
2020/12/11 08:28:09;;;;;;;13.58;9.35;;;;;;;1.00;69.12;101030.50;1748216;80;21157;-43
2020/12/11 08:30:37;;;;;;;12.55;8.33;;;;;;;0.99;69.19;101029.23;1759118;80;21169;-42
2020/12/11 08:33:11;;;;;;;15.80;9.35;;;;;;;0.99;69.33;101035.34;1754431;80;21154;-43
2020/12/11 08:35:39;;;;;;;13.80;9.00;;;;;;;0.97;69.28;101021.80;1751570;80;21150;-43
2020/12/11 08:38:10;;;;;;;15.10;9.78;;;;;;;0.96;69.18;101027.50;1752470;80;21118;-44
2020/12/11 08:40:47;;;;;;;16.25;9.60;;;;;;;0.98;69.15;101023.53;1730620;80;21566;-43
2020/12/11 08:51:38;;;;;;;14.23;9.35;;;;;;;0.99;68.81;101030.53;1748648;81;21149;-42
2020/12/11 08:54:08;;;;;;;15.63;10.18;;;;;;;0.95;68.44;101025.73;1700676;82;21878;-42
2020/12/11 08:56:45;;;;;;;14.75;10.32;;;;;;;0.93;68.58;101030.13;1749014;80;21645;-44
2020/12/11 08:59:14;;;;;;;16.70;8.75;;;;;;;0.91;68.58;101030.62;1731455;81;21157;-43
2020/12/11 09:01:41;;;;;;;14.33;9.03;;;;;;;0.91;68.48;101029.30;1749558;81;21594;-43
2020/12/11 09:04:09;;;;;;;12.07;8.35;;;;;;;0.90;68.65;101024.92;1753045;81;21129;-43
2020/12/11 09:06:37;;;;;;;12.70;8.38;;;;;;;0.90;68.42;101025.37;1748299;80;21178;-43
2020/12/11 09:09:04;;;;;;;10.78;8.28;;;;;;;0.90;68.58;101020.11;1743025;81;21131;-42
2020/12/11 09:11:32;;;;;;;14.68;8.80;;;;;;;0.92;68.57;101020.98;1746682;81;21168;-44
2020/12/11 09:13:59;;;;;;;14.23;9.63;;;;;;;0.94;68.64;101021.84;1752766;80;21139;-43
2020/12/11 09:16:27;;;;;;;13.32;9.08;;;;;;;0.97;68.60;101019.17;1750014;80;21127;-44
2020/12/11 09:18:55;;;;;;;16.80;9.93;;;;;;;1.00;68.55;101020.45;1747858;81;21590;-40
2020/12/11 09:21:23;;;;;;;12.15;9.00;;;;;;;1.00;68.54;101019.13;1748593;80;21154;-41
2020/12/11 09:23:50;;;;;;;14.33;9.93;;;;;;;1.00;68.64;101011.25;1746161;81;21143;-44
2020/12/11 09:26:18;;;;;;;14.45;9.35;;;;;;;0.97;68.39;101008.22;1747457;81;21146;-43
2020/12/11 09:28:50;;;;;;;11.93;8.10;;;;;;;0.97;68.42;101010.84;1700793;82;21582;-44
2020/12/11 09:31:22;;;;;;;16.55;9.33;;;;;;;0.96;68.48;101007.80;1752438;81;21133;-43
2020/12/11 09:33:51;;;;;;;16.77;9.90;;;;;;;0.98;68.21;101003.41;1750585;80;21566;-43
2020/12/11 09:36:19;;;;;;;12.75;8.03;;;;;;;0.98;68.33;101007.34;1704182;82;21531;-43
2020/12/11 09:38:46;;;;;;;15.35;8.65;;;;;;;0.99;68.22;101001.64;1747359;81;21671;-43
2020/12/11 09:41:17;;;;;;;13.58;8.88;;;;;;;0.99;67.98;100999.87;1751220;81;21613;-42
2020/12/11 09:43:59;;;;;;;13.62;8.85;;;;;;;0.95;67.96;100996.84;1751728;81;21146;-42
2020/12/11 09:49:04;;;;;;;16.82;11.22;;;;;;;0.91;67.86;100994.27;1730691;81;21145;-41
2020/12/11 09:54:08;;;;;;;17.15;10.75;;;;;;;0.88;67.50;100989.91;1752175;80;21465;-44
2020/12/11 09:56:28;;;;;;;13.98;9.88;;;;;;;0.81;67.34;100990.44;1750366;80;21571;-42
2020/12/11 10:04:20;;;;;;;13.80;9.68;;;;;;;0.76;67.59;100978.25;1735495;80;21129;-46
2020/12/11 10:06:48;;;;;;;11.83;8.30;;;;;;;0.76;67.60;100983.50;1731421;80;21727;-41
2020/12/11 10:09:16;;;;;;;14.43;9.55;;;;;;;0.74;67.26;100973.01;1736509;80;21735;-44
2020/12/11 10:11:43;;;;;;;16.75;9.55;;;;;;;0.72;67.64;100972.59;1733011;80;21165;-43
2020/12/11 10:14:16;;;;;;;12.63;9.00;;;;;;;0.70;67.49;100973.05;1727878;80;21359;-43
2020/12/11 10:16:41;;;;;;;14.05;9.50;;;;;;;0.67;67.52;100967.39;1729762;80;21498;-44
2020/12/11 10:19:10;;;;;;;13.70;10.18;;;;;;;0.68;67.50;100969.56;1729812;80;21169;-43
2020/12/11 10:21:40;;;;;;;13.80;9.05;;;;;;;0.65;67.58;100958.65;1730964;80;21130;-43
2020/12/11 10:25:01;;;;;;;17.50;10.43;;;;;;;0.65;67.62;100961.27;1738275;82;21601;-47
2020/12/11 10:27:29;;;;;;;12.85;9.08;;;;;;;0.64;67.64;100958.23;1680464;83;21597;-43
2020/12/11 10:29:58;;;;;;;14.23;10.65;;;;;;;0.63;67.67;100961.31;1682374;83;21307;-43
2020/12/11 10:32:26;;;;;;;12.50;7.83;;;;;;;0.62;67.63;100959.55;1680937;85;21617;-45
2020/12/11 10:34:54;;;;;;;16.85;10.20;;;;;;;0.61;67.75;100956.96;1682969;83;21201;-46
2020/12/11 10:37:21;;;;;;;13.43;7.87;;;;;;;0.59;67.71;100958.28;1680366;85;21258;-42
2020/12/11 10:39:50;;;;;;;15.70;9.30;;;;;;;0.58;67.71;100955.23;1682567;83;21206;-45
2020/12/11 10:42:18;;;;;;;15.70;9.23;;;;;;;0.59;67.62;100958.28;1680262;83;21562;-46
2020/12/11 10:45:04;;;;;;;15.55;10.32;;;;;;;0.62;67.71;100947.73;1799563;78;23443;-44
2020/12/11 10:47:32;;;;;;;15.43;10.35;;;;;;;0.58;67.78;100942.53;1777105;79;21137;-43
2020/12/11 10:50:00;;;;;;;14.55;10.55;;;;;;;0.56;67.68;100950.44;1719011;81;21157;-44
2020/12/11 10:52:28;;;;;;;16.45;10.53;;;;;;;0.57;67.82;100947.36;1734599;81;21142;-44
2020/12/11 10:54:56;;;;;;;16.32;10.00;;;;;;;0.60;67.87;100953.44;1689004;82;21186;-42
2020/12/11 10:57:24;;;;;;;14.78;10.48;;;;;;;0.62;67.94;100952.98;1708157;81;21145;-41
2020/12/11 10:59:52;;;;;;;15.48;10.25;;;;;;;0.68;68.03;100949.45;1707925;82;21153;-42
2020/12/11 11:02:19;;;;;;;13.40;9.23;;;;;;;0.71;68.00;100953.80;1703923;82;21161;-43
2020/12/11 11:04:47;;;;;;;17.50;11.48;;;;;;;0.72;68.08;100948.52;1701189;82;21193;-43
2020/12/11 11:07:18;;;;;;;14.30;10.40;;;;;;;0.76;68.04;100944.12;1701180;82;21182;-42
2020/12/11 11:12:35;;;;;;;13.95;10.00;;;;;;;0.77;68.12;100940.59;1699040;82;21169;-42
2020/12/11 11:15:27;;;;;;;17.62;11.03;;;;;;;0.79;68.01;100941.00;1705383;82;21152;-44
2020/12/11 11:28:30;;;;;;;13.32;9.88;;;;;;;0.73;67.40;100950.27;1737851;80;21409;-42
2020/12/11 11:30:57;;;;;;;15.63;10.98;;;;;;;0.67;67.34;100951.63;1738976;80;21169;-42
2020/12/11 11:33:25;;;;;;;15.45;10.72;;;;;;;0.60;67.20;100940.77;1736443;80;21158;-43
2020/12/11 11:35:53;;;;;;;15.48;9.63;;;;;;;0.56;67.23;100940.39;1743141;80;21130;-43
2020/12/11 11:38:20;;;;;;;15.50;10.43;;;;;;;0.52;67.13;100942.61;1738708;80;21342;-44
2020/12/11 11:40:49;;;;;;;14.25;10.13;;;;;;;0.48;67.04;100937.84;1737298;80;21300;-43
2020/12/11 11:43:27;;;;;;;13.32;10.32;;;;;;;0.44;67.08;100941.37;1730861;80;21214;-43
2020/12/11 11:45:46;;;;;;;14.58;9.48;;;;;;;0.39;66.89;100945.79;1716303;81;21797;-43
2020/12/11 11:48:16;;;;;;;17.70;10.23;;;;;;;0.34;66.84;100945.83;1729174;81;21907;-45
2020/12/11 11:50:53;;;;;;;14.23;10.60;;;;;;;0.31;67.07;100952.42;1726367;81;21556;-47
2020/12/11 11:53:19;;;;;;;14.83;9.45;;;;;;;0.25;66.97;100948.97;1724211;81;21138;-44
2020/12/11 11:55:47;;;;;;;16.73;10.78;;;;;;;0.21;67.13;100948.14;1726991;81;21145;-44
2020/12/11 11:58:15;;;;;;;15.43;10.78;;;;;;;0.15;67.05;100958.66;1727978;81;21488;-44
2020/12/11 12:00:42;;;;;;;17.27;10.15;;;;;;;0.11;67.22;100947.79;1727994;81;21118;-44
2020/12/11 12:03:09;;;;;;;13.83;9.93;;;;;;;0.09;67.39;100946.92;1729307;81;21181;-46
2020/12/11 12:05:37;;;;;;;15.48;10.00;;;;;;;0.09;67.53;100946.92;1694337;83;21115;-46